Cloverdale, OR (97112)

2:19 PM PDT on August 22, 2014 (GMT -0700)
Wi-Ne-Ma | Change Station
CLOSE
Current Station
Personal Weather Station
Location: Cloverdale, OR
Elevation: 64 ft
Nearby Weather Stations

Elev 64 ft 45.15 °N, 123.97 °W | Updated 2 minutes ago

Overcast
Overcast
64.0 °F
Feels Like 64.0 °F
N
3.0
Wind Variable Wind from WNW
Gusts 4.0 mph

Today
High -- | Low -- °F
--% Chance of Precip.
Yesterday
High -- | Low -- °F
Precip. -- in
6:25 AM 8:10 PM
Waning Crescent, 7% visible
Pressure 30.10 in
Visibility 10.0 miles
Clouds Overcast 1700 ft
Dew Point 58 °F
Humidity 80%
Rainfall 0.00 in
Snow Depth Not available.
UV 3 out of 12
Pollen 3.60 out of 12
Air Quality Not available.
Flu Activity Not available.
METAR KTMK 222115Z AUTO 31007KT 10SM OVC017 19/14 A3010 RMK AO2

More Conditions Fewer Conditions

Pressure 30.10 in
Visibility 10.0 miles
Clouds Overcast 1700 ft
Dew Point 58 °F
Humidity 80%
Rainfall 0.00 in
Snow Depth Not available.
UV 3 out of 12
Pollen 3.60 out of 12
Air Quality Not available.
Flu Activity Not available.
METAR KTMK 222115Z AUTO 31007KT 10SM OVC017 19/14 A3010 RMK AO2

More Conditions Fewer Conditions

10-Day Weather Forecast

Almanac

Astronomy

Aug. 22, 2014 Rise Set
Actual Time 6:25 AM PDT 8:10 PM PDT
Civil Twilight 5:54 AM PDT 8:41 PM PDT
Nautical Twilight 5:15 AM PDT 9:19 PM PDT
Astronomical Twilight 4:34 AM PDT 10:01 PM PDT
Moon 3:49 AM PDT 6:25 PM PDT
Length of Visible Light 14h 47m
Length of Day
13h 45m
Tomorrow will be 2m 56s shorter.
Waning Crescent, 7% of the Moon is Illuminated
Today
Waning Crescent
Aug 25
New
Sep 2
First Quarter
Sep 8
Full
Sep 15
Last Quarter

Today's Extremes

State Highs State Lows

Community

WunderPhotos

Upload Photos

1,746,256 photos uploaded!

Nearby

Snow Depth

Station Depth Elevation
Saddle Mountain 4 in 3250 ft
Seine Creek 0 in 2000 ft
North Fork 0 in 3120 ft
Peavine Ridge 0 in 3500 ft
Blazed Alder 0 in 3650 ft

Earthquake Activity

City Distance Mag. Time & Date
No recent earthquake activity has been reported nearby.
Minimum magnitude displayed is 2.5.

Coastal Water Temperatures

Place Temperature
Astoria, OR 69.1 °F
Westport, WA 55.0 °F

Nearby Weather Stations